Time;durP1;ratioP1;P1;durP2;ratioP2;P2;SDS_P1;SDS_P2;PMS_P1;PMS_P2;Temp;Humidity;BMP_temperature;BMP_pressure;BME280_temperature;BME280_humidity;BME280_pressure;Samples;Min_cycle;Max_cycle;Signal;HPM_P1;HPM_P2
2022/09/26 00:02:12;;;;;;;6.65;2.53;;;;;;;;;;4997454;28;20516;-69
2022/09/26 00:04:42;;;;;;;5.32;2.17;;;;;;;;;;5030593;28;20058;-69
2022/09/26 00:07:12;;;;;;;5.45;2.55;;;;;;;;;;5031019;28;20056;-69
2022/09/26 00:09:42;;;;;;;7.75;3.22;;;;;;;;;;5010509;28;20060;-69
2022/09/26 00:12:12;;;;;;;13.70;4.28;;;;;;;;;;5010741;28;20058;-68
2022/09/26 00:14:42;;;;;;;9.70;3.25;;;;;;;;;;5010766;28;20057;-68
2022/09/26 00:17:13;;;;;;;5.60;2.38;;;;;;;;;;4987791;28;20054;-70
2022/09/26 00:19:43;;;;;;;47.78;16.67;;;;;;;;;;4981422;28;20072;-69
2022/09/26 00:22:14;;;;;;;6.45;2.78;;;;;;;;;;5030467;28;20061;-70
2022/09/26 00:24:44;;;;;;;4.70;1.58;;;;;;;;;;5030173;28;20065;-69
2022/09/26 00:27:14;;;;;;;4.10;1.13;;;;;;;;;;5014169;28;20068;-69
2022/09/26 00:29:44;;;;;;;3.92;1.45;;;;;;;;;;5030224;28;20049;-65
2022/09/26 00:32:13;;;;;;;3.00;1.40;;;;;;;;;;5030372;28;20040;-67
2022/09/26 00:34:44;;;;;;;2.60;0.95;;;;;;;;;;4961389;28;20050;-67
2022/09/26 00:37:13;;;;;;;4.85;1.38;;;;;;;;;;5010390;28;20065;-68
2022/09/26 00:39:44;;;;;;;2.95;1.13;;;;;;;;;;4993877;28;20064;-69
2022/09/26 00:42:15;;;;;;;4.72;1.35;;;;;;;;;;5010408;28;20050;-68
2022/09/26 00:44:53;;;;;;;3.03;1.10;;;;;;;;;;5010080;28;20054;-67
2022/09/26 00:47:43;;;;;;;2.60;1.15;;;;;;;;;;5014403;28;20057;-69
2022/09/26 00:50:32;;;;;;;2.63;1.10;;;;;;;;;;4996805;28;20053;-69
2022/09/26 00:53:09;;;;;;;2.97;1.33;;;;;;;;;;5029465;28;20038;-66
2022/09/26 00:55:49;;;;;;;4.25;1.30;;;;;;;;;;4990264;28;20407;-69
2022/09/26 00:58:29;;;;;;;3.05;1.63;;;;;;;;;;4970695;28;20043;-68
2022/09/26 01:01:00;;;;;;;3.63;1.42;;;;;;;;;;4938219;28;20396;-67
2022/09/26 01:03:34;;;;;;;5.00;2.20;;;;;;;;;;4951140;28;20051;-68
2022/09/26 01:06:04;;;;;;;;;;;;;;;;;;4951919;28;20059;-68
2022/09/26 01:08:48;;;;;;;3.40;1.30;;;;;;;;;;4951383;28;19922;-68
2022/09/26 01:11:19;;;;;;;2.80;1.38;;;;;;;;;;4952592;28;20531;-67
2022/09/26 01:13:53;;;;;;;2.28;1.02;;;;;;;;;;4969975;28;20793;-69
2022/09/26 01:16:24;;;;;;;2.90;1.10;;;;;;;;;;4989840;28;20077;-68
2022/09/26 01:18:54;;;;;;;2.55;1.42;;;;;;;;;;4989679;28;20054;-67
2022/09/26 01:21:48;;;;;;;2.47;1.15;;;;;;;;;;4957716;28;20050;-68
2022/09/26 01:24:50;;;;;;;3.83;1.58;;;;;;;;;;5009202;28;20068;-68
2022/09/26 01:27:44;;;;;;;5.25;2.03;;;;;;;;;;4926150;29;20055;-68
2022/09/26 01:30:20;;;;;;;5.38;1.73;;;;;;;;;;4906778;29;20056;-68
2022/09/26 01:32:53;;;;;;;3.70;1.63;;;;;;;;;;4893897;29;20075;-68
2022/09/26 01:35:55;;;;;;;6.30;3.35;;;;;;;;;;4881280;29;20059;-69
2022/09/26 01:38:47;;;;;;;4.63;1.77;;;;;;;;;;4870395;29;20658;-68
2022/09/26 01:41:58;;;;;;;3.60;1.42;;;;;;;;;;4856402;29;20045;-68
2022/09/26 01:44:47;;;;;;;4.97;1.50;;;;;;;;;;4844348;29;20053;-68
2022/09/26 01:47:41;;;;;;;3.80;1.60;;;;;;;;;;4875176;29;20057;-68
2022/09/26 01:50:15;;;;;;;;;;;;;;;;;;4856864;29;20057;-68
2022/09/26 01:52:52;;;;;;;2.42;1.33;;;;;;;;;;4856565;29;19924;-68
2022/09/26 01:55:37;;;;;;;3.97;1.60;;;;;;;;;;4804742;29;20058;-67
2022/09/26 01:58:11;;;;;;;4.03;1.45;;;;;;;;;;4819809;29;20439;-68
2022/09/26 02:00:45;;;;;;;3.85;1.73;;;;;;;;;;4837792;29;20066;-68
2022/09/26 02:03:26;;;;;;;8.50;1.55;;;;;;;;;;4840437;29;20061;-68
2022/09/26 02:06:36;;;;;;;3.67;1.83;;;;;;;;;;4905357;29;20551;-68
2022/09/26 02:09:15;;;;;;;4.47;1.90;;;;;;;;;;4855780;29;20447;-68
2022/09/26 02:11:48;;;;;;;85.47;40.60;;;;;;;;;;4837713;29;20050;-68
2022/09/26 02:14:27;;;;;;;13.88;5.70;;;;;;;;;;4839063;29;20049;-68
2022/09/26 02:17:12;;;;;;;8.25;3.70;;;;;;;;;;4856091;29;20064;-67
2022/09/26 02:19:55;;;;;;;5.88;2.17;;;;;;;;;;4856379;29;20053;-68
2022/09/26 02:22:29;;;;;;;4.85;2.10;;;;;;;;;;4893127;29;20049;-68
2022/09/26 02:25:01;;;;;;;4.75;1.67;;;;;;;;;;4912455;29;20055;-68
2022/09/26 02:27:33;;;;;;;3.40;1.65;;;;;;;;;;4900396;29;20618;-68
2022/09/26 02:30:05;;;;;;;8.18;3.92;;;;;;;;;;4915796;29;20056;-68
2022/09/26 02:32:39;;;;;;;4.80;2.20;;;;;;;;;;4915577;29;20523;-68
2022/09/26 02:38:00;;;;;;;6.63;2.53;;;;;;;;;;4928174;29;20044;-68
2022/09/26 02:40:50;;;;;;;5.65;2.30;;;;;;;;;;4881266;29;20053;-68
2022/09/26 02:43:37;;;;;;;7.05;2.10;;;;;;;;;;4865805;29;20059;-68
2022/09/26 02:46:26;;;;;;;4.68;2.10;;;;;;;;;;4869330;29;20056;-68
2022/09/26 02:49:16;;;;;;;6.90;2.20;;;;;;;;;;4902294;29;20063;-68
2022/09/26 02:52:01;;;;;;;4.90;2.22;;;;;;;;;;4904336;29;20064;-68
2022/09/26 02:55:07;;;;;;;4.85;2.00;;;;;;;;;;4877555;29;20544;-68
2022/09/26 02:57:54;;;;;;;4.07;2.20;;;;;;;;;;4824931;29;20053;-68
2022/09/26 03:00:30;;;;;;;4.43;2.00;;;;;;;;;;4817138;29;20518;-68
2022/09/26 03:03:18;;;;;;;4.70;1.90;;;;;;;;;;4870537;29;20057;-68
2022/09/26 03:05:53;;;;;;;4.40;2.05;;;;;;;;;;4877396;29;20060;-68
2022/09/26 03:08:27;;;;;;;5.07;2.47;;;;;;;;;;4819796;29;20055;-69
2022/09/26 03:11:04;;;;;;;3.78;1.95;;;;;;;;;;4790156;29;20060;-68
2022/09/26 03:13:36;;;;;;;5.30;2.03;;;;;;;;;;4833618;29;20500;-68
2022/09/26 03:16:08;;;;;;;6.53;2.05;;;;;;;;;;4821938;29;20058;-68
2022/09/26 03:19:22;;;;;;;3.88;1.58;;;;;;;;;;4834543;29;20060;-68
2022/09/26 03:21:53;;;;;;;4.25;1.98;;;;;;;;;;4858906;29;20551;-68
2022/09/26 03:24:25;;;;;;;4.85;2.67;;;;;;;;;;4872302;29;20540;-68
2022/09/26 03:27:02;;;;;;;7.28;2.03;;;;;;;;;;4877179;29;20402;-68
2022/09/26 03:29:35;;;;;;;6.72;1.98;;;;;;;;;;4868501;29;20127;-68
2022/09/26 03:32:13;;;;;;;8.20;1.75;;;;;;;;;;4858692;29;20064;-68
2022/09/26 03:34:43;;;;;;;6.70;2.10;;;;;;;;;;4833708;29;20050;-68
2022/09/26 03:37:14;;;;;;;4.22;1.67;;;;;;;;;;4836432;29;20465;-68
2022/09/26 03:39:46;;;;;;;5.57;2.10;;;;;;;;;;4821376;29;20062;-67
2022/09/26 03:42:39;;;;;;;6.72;1.70;;;;;;;;;;4820014;29;20054;-68
2022/09/26 03:45:10;;;;;;;3.75;1.95;;;;;;;;;;4836394;29;20050;-68
2022/09/26 03:48:05;;;;;;;7.88;2.13;;;;;;;;;;4833309;29;20046;-68
2022/09/26 03:50:35;;;;;;;5.45;2.00;;;;;;;;;;4858174;29;20058;-68
2022/09/26 03:53:06;;;;;;;4.75;2.00;;;;;;;;;;4872346;29;20066;-67
2022/09/26 03:55:37;;;;;;;3.90;1.70;;;;;;;;;;4864185;29;20666;-68
2022/09/26 03:58:08;;;;;;;4.28;1.92;;;;;;;;;;4876794;29;20510;-68
2022/09/26 04:00:40;;;;;;;4.28;2.15;;;;;;;;;;4865354;29;20053;-67
2022/09/26 04:03:11;;;;;;;5.45;1.80;;;;;;;;;;4877358;29;20204;-68
2022/09/26 04:05:42;;;;;;;6.90;1.80;;;;;;;;;;4876607;29;20068;-68
2022/09/26 04:08:12;;;;;;;8.77;2.20;;;;;;;;;;4878877;29;20049;-68
2022/09/26 04:10:43;;;;;;;8.85;2.50;;;;;;;;;;4860821;29;20419;-68
2022/09/26 04:13:15;;;;;;;5.35;2.42;;;;;;;;;;4842445;29;20065;-68
2022/09/26 04:16:08;;;;;;;6.88;2.17;;;;;;;;;;4857756;29;20057;-68
2022/09/26 04:18:39;;;;;;;6.75;2.33;;;;;;;;;;4908658;29;20524;-67
2022/09/26 04:21:14;;;;;;;8.82;2.13;;;;;;;;;;4913686;29;20044;-68
2022/09/26 04:23:45;;;;;;;8.05;2.38;;;;;;;;;;4930283;29;20064;-67
2022/09/26 04:26:19;;;;;;;8.32;2.30;;;;;;;;;;4951680;29;20206;-68
2022/09/26 04:28:55;;;;;;;5.60;2.72;;;;;;;;;;4923361;29;20638;-68
2022/09/26 04:31:45;;;;;;;9.25;2.85;;;;;;;;;;4898409;29;20057;-67
2022/09/26 04:34:23;;;;;;;7.68;2.30;;;;;;;;;;4896109;29;20056;-67
2022/09/26 04:36:58;;;;;;;9.88;2.80;;;;;;;;;;4895416;29;20056;-68
2022/09/26 04:39:28;;;;;;;5.60;2.30;;;;;;;;;;4913033;29;20060;-68
2022/09/26 04:41:59;;;;;;;6.22;2.45;;;;;;;;;;4864453;29;20064;-68
2022/09/26 04:44:31;;;;;;;4.47;2.20;;;;;;;;;;4931265;29;20105;-67
2022/09/26 04:47:01;;;;;;;5.70;2.47;;;;;;;;;;4947877;29;20059;-67
2022/09/26 04:49:54;;;;;;;4.28;1.92;;;;;;;;;;4875668;29;20053;-67
2022/09/26 04:52:26;;;;;;;12.63;2.75;;;;;;;;;;4894364;29;20493;-68
2022/09/26 04:54:57;;;;;;;9.63;2.20;;;;;;;;;;4894348;29;20056;-67
2022/09/26 04:57:27;;;;;;;7.90;2.67;;;;;;;;;;4896545;29;20052;-68
2022/09/26 04:59:57;;;;;;;7.50;2.85;;;;;;;;;;4931149;29;20076;-67
2022/09/26 05:02:27;;;;;;;8.00;2.20;;;;;;;;;;4912955;29;20574;-67
2022/09/26 05:04:58;;;;;;;8.15;2.15;;;;;;;;;;4895939;29;20060;-68
2022/09/26 05:07:30;;;;;;;8.55;2.28;;;;;;;;;;4862081;29;20058;-67
2022/09/26 05:10:00;;;;;;;8.38;2.45;;;;;;;;;;4852600;29;20056;-68
2022/09/26 05:12:32;;;;;;;9.02;2.38;;;;;;;;;;4897081;29;20048;-68
2022/09/26 05:15:04;;;;;;;10.50;2.20;;;;;;;;;;4900094;29;20049;-67
2022/09/26 05:17:36;;;;;;;7.18;2.72;;;;;;;;;;4893497;29;20052;-67
2022/09/26 05:20:08;;;;;;;4.95;2.28;;;;;;;;;;4893772;29;20060;-68
2022/09/26 05:23:00;;;;;;;7.00;2.28;;;;;;;;;;4868323;29;20060;-68
2022/09/26 05:28:26;;;;;;;6.47;2.42;;;;;;;;;;4838159;29;20065;-68
2022/09/26 05:30:58;;;;;;;4.68;2.08;;;;;;;;;;4856249;29;20065;-68
2022/09/26 05:33:28;;;;;;;7.50;2.20;;;;;;;;;;4838142;29;20073;-68
2022/09/26 05:35:58;;;;;;;5.65;2.42;;;;;;;;;;4819622;29;20660;-67
2022/09/26 05:38:28;;;;;;;4.45;2.05;;;;;;;;;;4850227;29;20053;-68
2022/09/26 05:40:58;;;;;;;4.65;2.40;;;;;;;;;;4804681;29;20100;-67
2022/09/26 05:43:32;;;;;;;5.32;2.20;;;;;;;;;;4856135;29;20053;-68
2022/09/26 05:46:09;;;;;;;6.80;2.10;;;;;;;;;;4856208;29;20068;-68
2022/09/26 05:48:45;;;;;;;6.53;2.17;;;;;;;;;;4831033;29;20048;-68
2022/09/26 05:51:22;;;;;;;6.22;2.00;;;;;;;;;;4875876;29;20057;-68
2022/09/26 05:53:52;;;;;;;11.07;2.08;;;;;;;;;;4892865;29;20072;-68
2022/09/26 05:56:26;;;;;;;9.00;2.13;;;;;;;;;;4841717;29;20064;-68
2022/09/26 05:59:15;;;;;;;6.60;1.88;;;;;;;;;;4838180;29;20561;-68
2022/09/26 06:02:21;;;;;;;7.85;2.40;;;;;;;;;;4822570;29;20058;-68
2022/09/26 06:05:25;;;;;;;5.00;2.10;;;;;;;;;;4853182;29;20414;-68
2022/09/26 06:07:59;;;;;;;5.47;2.00;;;;;;;;;;4867701;29;20384;-68
2022/09/26 06:10:39;;;;;;;5.60;2.00;;;;;;;;;;4850798;29;20054;-68
2022/09/26 06:13:14;;;;;;;8.05;2.40;;;;;;;;;;4880135;29;20446;-68
2022/09/26 06:15:52;;;;;;;11.50;2.50;;;;;;;;;;4911992;29;20055;-68
2022/09/26 06:18:23;;;;;;;12.30;2.60;;;;;;;;;;4868477;29;20186;-68
2022/09/26 06:20:55;;;;;;;10.13;2.55;;;;;;;;;;4867041;29;20438;-68
2022/09/26 06:23:25;;;;;;;16.75;2.58;;;;;;;;;;4858832;29;20058;-68
2022/09/26 06:25:55;;;;;;;8.27;2.10;;;;;;;;;;4849157;29;20066;-68
2022/09/26 06:28:26;;;;;;;10.70;2.22;;;;;;;;;;4867679;29;20050;-68
2022/09/26 06:30:57;;;;;;;12.13;2.65;;;;;;;;;;4869357;29;20510;-68
2022/09/26 06:33:54;;;;;;;15.52;2.15;;;;;;;;;;4856138;29;20054;-68
2022/09/26 06:36:35;;;;;;;18.38;2.13;;;;;;;;;;4855798;29;20041;-68
2022/09/26 06:39:05;;;;;;;11.38;2.22;;;;;;;;;;4871171;29;20064;-68
2022/09/26 06:41:36;;;;;;;9.80;2.10;;;;;;;;;;4864180;29;20064;-68
2022/09/26 06:44:28;;;;;;;8.85;2.38;;;;;;;;;;4861638;29;20053;-68
2022/09/26 06:47:17;;;;;;;9.90;2.25;;;;;;;;;;4885681;29;20060;-68
2022/09/26 06:49:47;;;;;;;15.27;3.50;;;;;;;;;;4894124;29;20056;-68
2022/09/26 06:52:32;;;;;;;13.10;2.53;;;;;;;;;;4883495;29;20405;-68
2022/09/26 06:55:06;;;;;;;9.52;2.13;;;;;;;;;;4878563;29;20079;-68
2022/09/26 06:57:39;;;;;;;19.98;2.13;;;;;;;;;;4894601;29;20060;-68
2022/09/26 07:00:12;;;;;;;10.55;2.10;;;;;;;;;;4890594;29;20052;-69
2022/09/26 07:03:08;;;;;;;6.68;1.95;;;;;;;;;;4863173;29;20069;-68
2022/09/26 07:05:46;;;;;;;8.00;2.33;;;;;;;;;;4830694;29;20515;-68
2022/09/26 07:08:17;;;;;;;10.68;2.67;;;;;;;;;;4870496;29;20057;-69
2022/09/26 07:10:47;;;;;;;11.98;2.47;;;;;;;;;;4855495;29;20049;-68
2022/09/26 07:13:24;;;;;;;10.07;2.35;;;;;;;;;;4876344;29;20053;-68
2022/09/26 07:16:00;;;;;;;11.32;2.38;;;;;;;;;;4866214;29;20045;-69
2022/09/26 07:18:50;;;;;;;11.73;2.72;;;;;;;;;;4895689;29;20518;-68
2022/09/26 07:21:35;;;;;;;5.95;2.30;;;;;;;;;;4851104;29;20071;-68
2022/09/26 07:24:28;;;;;;;7.82;2.40;;;;;;;;;;4792637;29;20608;-68
2022/09/26 07:27:00;;;;;;;10.98;2.63;;;;;;;;;;4807278;29;20512;-68
2022/09/26 07:29:32;;;;;;;11.10;2.20;;;;;;;;;;4807466;29;20066;-68
2022/09/26 07:32:02;;;;;;;5.50;2.35;;;;;;;;;;4821416;29;20096;-68
2022/09/26 07:35:02;;;;;;;12.00;2.10;;;;;;;;;;4822311;29;20181;-68
2022/09/26 07:37:51;;;;;;;8.27;2.03;;;;;;;;;;4774137;29;20063;-69
2022/09/26 07:40:35;;;;;;;8.73;2.50;;;;;;;;;;4779637;29;20495;-68
2022/09/26 07:43:07;;;;;;;15.77;2.33;;;;;;;;;;4767657;30;20062;-69
2022/09/26 07:52:08;;;;;;;14.75;2.90;;;;;;;;;;4757888;30;20477;-68
2022/09/26 07:54:50;;;;;;;9.13;2.42;;;;;;;;;;4767484;30;20060;-69
2022/09/26 07:57:39;;;;;;;14.63;2.90;;;;;;;;;;4785966;29;20055;-68
2022/09/26 08:00:25;;;;;;;7.68;2.38;;;;;;;;;;4776944;29;20047;-68
2022/09/26 08:03:06;;;;;;;13.90;2.60;;;;;;;;;;4780557;29;20063;-68
2022/09/26 08:05:38;;;;;;;11.20;3.00;;;;;;;;;;4769162;30;20599;-68
2022/09/26 08:08:10;;;;;;;12.60;3.17;;;;;;;;;;4818999;29;20065;-68
2022/09/26 08:10:58;;;;;;;16.70;3.33;;;;;;;;;;4803553;29;20046;-69
2022/09/26 08:13:47;;;;;;;18.75;4.18;;;;;;;;;;4852493;29;20050;-68
2022/09/26 08:16:46;;;;;;;14.07;3.65;;;;;;;;;;4821651;29;20062;-69
2022/09/26 08:19:16;;;;;;;19.02;4.75;;;;;;;;;;4824993;29;20054;-68
2022/09/26 08:21:47;;;;;;;16.80;4.85;;;;;;;;;;4807829;29;20061;-69
2022/09/26 08:24:18;;;;;;;19.98;5.20;;;;;;;;;;4786720;29;20058;-68
2022/09/26 08:26:54;;;;;;;33.30;5.65;;;;;;;;;;4800778;29;20054;-69
2022/09/26 08:29:33;;;;;;;16.83;4.57;;;;;;;;;;4770618;30;20062;-68
2022/09/26 08:32:04;;;;;;;19.13;4.70;;;;;;;;;;4772380;30;20060;-69
2022/09/26 08:34:37;;;;;;;19.35;3.92;;;;;;;;;;4802493;29;20055;-69
2022/09/26 08:37:40;;;;;;;15.85;4.15;;;;;;;;;;4813592;29;20463;-68
2022/09/26 08:40:39;;;;;;;18.27;4.15;;;;;;;;;;4802705;29;20055;-68
2022/09/26 08:43:41;;;;;;;16.90;4.05;;;;;;;;;;4813395;29;20054;-69
2022/09/26 08:46:57;;;;;;;11.93;3.25;;;;;;;;;;4800101;29;20106;-69
2022/09/26 08:50:20;;;;;;;10.23;3.53;;;;;;;;;;4820760;29;20082;-69
2022/09/26 08:53:15;;;;;;;12.27;2.78;;;;;;;;;;4808154;29;20066;-69
2022/09/26 08:55:55;;;;;;;9.35;3.35;;;;;;;;;;4803693;29;20051;-70
2022/09/26 08:58:38;;;;;;;7.25;2.83;;;;;;;;;;4858368;29;20049;-68
2022/09/26 09:01:25;;;;;;;12.77;3.75;;;;;;;;;;4847857;29;20046;-68
2022/09/26 09:04:20;;;;;;;11.52;2.95;;;;;;;;;;4820842;29;20053;-68
2022/09/26 09:07:01;;;;;;;9.90;2.72;;;;;;;;;;4820033;29;20054;-69
2022/09/26 09:09:33;;;;;;;7.10;2.60;;;;;;;;;;4828770;29;20054;-68
2022/09/26 09:12:29;;;;;;;10.75;2.75;;;;;;;;;;4808141;29;20054;-68
2022/09/26 09:15:56;;;;;;;8.70;2.72;;;;;;;;;;4857282;29;20064;-72
2022/09/26 09:19:05;;;;;;;8.27;2.50;;;;;;;;;;4838176;29;20407;-73
2022/09/26 09:22:25;;;;;;;12.00;3.13;;;;;;;;;;4820093;29;20065;-72
2022/09/26 09:25:16;;;;;;;12.57;2.80;;;;;;;;;;4788717;29;20151;-69
2022/09/26 09:28:02;;;;;;;10.25;3.08;;;;;;;;;;4802076;29;20059;-72
2022/09/26 09:30:58;;;;;;;8.60;2.80;;;;;;;;;;4838184;29;20554;-69
2022/09/26 09:33:59;;;;;;;8.55;3.42;;;;;;;;;;4815383;29;20059;-68
2022/09/26 09:36:54;;;;;;;14.43;3.80;;;;;;;;;;4777299;29;20048;-68
2022/09/26 09:39:46;;;;;;;13.52;4.13;;;;;;;;;;4783394;29;20047;-69
2022/09/26 09:42:47;;;;;;;11.38;2.97;;;;;;;;;;4795854;29;20054;-69
2022/09/26 09:45:22;;;;;;;11.07;3.60;;;;;;;;;;4801580;29;20647;-70
2022/09/26 09:47:50;;;;;;;9.35;3.50;;;;;;;;;;4792096;29;20055;-69
2022/09/26 09:50:43;;;;;;;10.23;3.33;;;;;;;;;;4767184;30;20067;-70
2022/09/26 09:53:39;;;;;;;11.55;3.00;;;;;;;;;;4795346;29;20063;-69
2022/09/26 09:56:39;;;;;;;11.27;2.88;;;;;;;;;;4819095;29;20552;-69
2022/09/26 09:59:32;;;;;;;8.65;3.35;;;;;;;;;;4834485;29;20066;-69
2022/09/26 10:02:42;;;;;;;12.45;4.00;;;;;;;;;;4870911;29;20053;-69
2022/09/26 10:05:32;;;;;;;19.80;4.25;;;;;;;;;;4839904;29;20054;-68
2022/09/26 10:08:02;;;;;;;12.85;3.67;;;;;;;;;;4808550;29;20130;-68
2022/09/26 10:11:20;;;;;;;17.00;3.88;;;;;;;;;;4772015;30;20063;-69
2022/09/26 10:14:05;;;;;;;12.18;3.95;;;;;;;;;;4758215;30;20067;-68
2022/09/26 10:17:13;;;;;;;75.07;18.75;;;;;;;;;;4772467;29;20547;-68
2022/09/26 10:20:40;;;;;;;118.85;39.75;;;;;;;;;;4773221;30;20055;-69
2022/09/26 10:23:31;;;;;;;28.23;9.18;;;;;;;;;;4819571;29;20065;-68
2022/09/26 10:26:35;;;;;;;;;;;;;;;;;;4812829;29;20524;-68
2022/09/26 10:29:35;;;;;;;21.92;5.97;;;;;;;;;;4794631;29;19925;-69
2022/09/26 10:32:08;;;;;;;22.17;5.55;;;;;;;;;;4765236;30;20067;-68
2022/09/26 10:34:41;;;;;;;21.40;5.47;;;;;;;;;;4782776;29;20062;-68
2022/09/26 10:37:23;;;;;;;17.67;5.22;;;;;;;;;;4770485;30;20051;-68
2022/09/26 10:42:50;;;;;;;22.50;6.95;;;;;;;;;;4783287;30;20074;-68
2022/09/26 10:45:26;;;;;;;18.90;6.25;;;;;;;;;;4776442;30;20509;-69
2022/09/26 10:48:20;;;;;;;20.02;6.35;;;;;;;;;;4769479;30;20055;-68
2022/09/26 10:51:10;;;;;;;19.65;6.45;;;;;;;;;;4773869;29;20056;-68
2022/09/26 10:54:00;;;;;;;21.15;5.35;;;;;;;;;;4785867;29;20097;-69
2022/09/26 10:56:36;;;;;;;18.90;5.70;;;;;;;;;;4822375;29;20058;-68
2022/09/26 10:59:10;;;;;;;19.85;6.20;;;;;;;;;;4822878;29;20057;-68
2022/09/26 11:01:47;;;;;;;19.88;5.32;;;;;;;;;;4859142;29;20053;-69
2022/09/26 11:07:34;;;;;;;14.00;5.05;;;;;;;;;;4878010;29;20053;-68
2022/09/26 11:10:40;;;;;;;17.13;5.80;;;;;;;;;;4874290;29;20064;-68
2022/09/26 11:13:20;;;;;;;16.52;4.70;;;;;;;;;;4872977;29;20057;-68
2022/09/26 11:16:13;;;;;;;14.23;5.10;;;;;;;;;;4891773;29;20475;-69
2022/09/26 11:18:55;;;;;;;19.92;5.10;;;;;;;;;;4896042;29;20049;-68
2022/09/26 11:21:44;;;;;;;15.50;4.72;;;;;;;;;;4892524;29;20056;-68
2022/09/26 11:24:27;;;;;;;11.23;4.30;;;;;;;;;;4876826;29;20053;-68
2022/09/26 11:27:05;;;;;;;15.13;4.55;;;;;;;;;;4895895;29;20521;-68
2022/09/26 11:29:54;;;;;;;11.07;4.03;;;;;;;;;;4914619;29;20059;-68
2022/09/26 11:32:31;;;;;;;11.35;3.90;;;;;;;;;;4918134;29;20058;-68
2022/09/26 11:35:32;;;;;;;14.57;3.97;;;;;;;;;;4896646;29;20056;-69
2022/09/26 11:38:27;;;;;;;10.23;3.35;;;;;;;;;;4933409;29;20047;-69
2022/09/26 11:41:07;;;;;;;10.30;3.58;;;;;;;;;;4870370;29;20430;-69
2022/09/26 11:43:49;;;;;;;10.68;3.38;;;;;;;;;;4821816;29;20062;-69
2022/09/26 11:47:14;;;;;;;9.10;3.67;;;;;;;;;;4853320;29;20058;-69
2022/09/26 11:50:38;;;;;;;9.05;3.97;;;;;;;;;;4840649;29;20054;-69
2022/09/26 11:53:39;;;;;;;9.30;3.53;;;;;;;;;;4839557;29;20057;-69
2022/09/26 11:56:48;;;;;;;8.50;3.63;;;;;;;;;;4840251;29;20065;-69
2022/09/26 11:59:35;;;;;;;9.00;3.70;;;;;;;;;;4810478;29;20432;-69
2022/09/26 12:02:31;;;;;;;8.48;3.40;;;;;;;;;;4788582;29;20071;-69
2022/09/26 12:05:36;;;;;;;8.05;3.45;;;;;;;;;;4764767;29;20058;-70
2022/09/26 12:08:20;;;;;;;8.88;3.90;;;;;;;;;;4738106;30;20070;-69
2022/09/26 12:11:16;;;;;;;7.80;3.33;;;;;;;;;;4782314;30;20062;-70
2022/09/26 12:13:51;;;;;;;10.35;3.97;;;;;;;;;;4748882;30;20167;-72
2022/09/26 12:16:40;;;;;;;8.45;3.80;;;;;;;;;;4745342;30;20059;-70
2022/09/26 12:19:30;;;;;;;9.65;3.92;;;;;;;;;;4797576;29;20043;-70
2022/09/26 12:22:54;;;;;;;8.05;3.55;;;;;;;;;;4837368;29;20160;-70
2022/09/26 12:25:55;;;;;;;8.95;3.75;;;;;;;;;;4817627;29;20058;-70
2022/09/26 12:28:47;;;;;;;9.73;3.78;;;;;;;;;;4821360;29;20531;-70
2022/09/26 12:31:40;;;;;;;7.25;3.40;;;;;;;;;;4792618;29;20432;-69
2022/09/26 12:34:29;;;;;;;8.25;3.60;;;;;;;;;;4839540;29;20442;-71
2022/09/26 12:37:22;;;;;;;8.23;4.00;;;;;;;;;;4877900;29;20052;-70
2022/09/26 12:40:10;;;;;;;8.85;4.47;;;;;;;;;;4935802;28;20050;-70
2022/09/26 12:42:50;;;;;;;6.28;2.80;;;;;;;;;;4951931;28;20067;-70
2022/09/26 12:45:47;;;;;;;8.68;3.58;;;;;;;;;;4904029;28;20043;-70
2022/09/26 12:48:42;;;;;;;9.02;4.13;;;;;;;;;;4969477;28;20046;-70
2022/09/26 12:51:40;;;;;;;11.85;5.00;;;;;;;;;;4958404;28;20506;-69
2022/09/26 12:54:34;;;;;;;9.30;4.57;;;;;;;;;;4942193;28;20681;-70
2022/09/26 12:57:31;;;;;;;11.05;5.10;;;;;;;;;;4970936;28;20063;-70
2022/09/26 13:00:20;;;;;;;9.57;4.78;;;;;;;;;;4913719;29;20067;-70
2022/09/26 13:03:11;;;;;;;9.77;4.63;;;;;;;;;;4925871;28;20069;-70
2022/09/26 13:05:59;;;;;;;;;;;;;;;;;;4990674;28;20058;-71
2022/09/26 13:08:56;;;;;;;11.60;4.97;;;;;;;;;;4990510;28;19962;-71
2022/09/26 13:11:29;;;;;;;11.35;4.80;;;;;;;;;;4973282;28;20066;-71
2022/09/26 13:14:27;;;;;;;11.60;5.28;;;;;;;;;;4990495;28;20081;-71
2022/09/26 13:17:12;;;;;;;13.10;6.05;;;;;;;;;;4990050;28;20050;-72
2022/09/26 13:19:51;;;;;;;13.10;6.38;;;;;;;;;;4990232;28;20042;-71
2022/09/26 13:22:52;;;;;;;38.85;16.33;;;;;;;;;;4989951;28;20062;-71
2022/09/26 13:25:28;;;;;;;32.80;14.55;;;;;;;;;;4990056;28;20057;-71
2022/09/26 13:28:09;;;;;;;114.93;67.63;;;;;;;;;;4997993;28;20065;-70
2022/09/26 13:30:46;;;;;;;14.20;7.38;;;;;;;;;;5009452;28;20066;-70
2022/09/26 13:33:33;;;;;;;19.45;11.15;;;;;;;;;;4993115;28;20534;-70
2022/09/26 13:36:03;;;;;;;15.85;6.80;;;;;;;;;;5012669;28;20042;-70
2022/09/26 13:38:52;;;;;;;14.73;6.22;;;;;;;;;;5072779;28;20052;-70
2022/09/26 13:41:29;;;;;;;11.70;5.95;;;;;;;;;;5091795;28;20399;-70
2022/09/26 13:44:16;;;;;;;11.15;5.60;;;;;;;;;;5091543;28;20040;-70
2022/09/26 13:47:07;;;;;;;11.20;5.88;;;;;;;;;;5044344;28;20048;-69
2022/09/26 13:50:14;;;;;;;9.40;4.68;;;;;;;;;;5064198;28;20053;-69
2022/09/26 13:53:16;;;;;;;11.80;5.47;;;;;;;;;;5070968;28;20052;-69
2022/09/26 13:56:28;;;;;;;11.95;4.85;;;;;;;;;;5071343;28;20511;-68
2022/09/26 13:59:14;;;;;;;10.65;5.45;;;;;;;;;;5070976;28;20032;-68
2022/09/26 14:02:18;;;;;;;10.75;4.35;;;;;;;;;;5071405;28;20500;-69
2022/09/26 14:04:49;;;;;;;;;;;;;;;;;;5074092;28;20036;-70
2022/09/26 14:10:33;;;;;;;8.55;4.18;;;;;;;;;;5091391;28;19927;-70
2022/09/26 14:13:09;;;;;;;7.00;3.65;;;;;;;;;;5091227;28;20416;-70
2022/09/26 14:15:49;;;;;;;9.20;4.57;;;;;;;;;;5071413;28;20488;-71
2022/09/26 14:18:43;;;;;;;8.27;4.20;;;;;;;;;;5068560;28;20076;-70
2022/09/26 14:21:16;;;;;;;8.45;4.85;;;;;;;;;;5053364;28;20061;-71
2022/09/26 14:23:49;;;;;;;9.05;4.82;;;;;;;;;;5075255;28;20044;-70
2022/09/26 14:26:26;;;;;;;8.25;4.28;;;;;;;;;;5080221;28;20114;-71
2022/09/26 14:29:31;;;;;;;9.48;4.90;;;;;;;;;;5093117;28;20056;-72
2022/09/26 14:32:18;;;;;;;8.95;4.28;;;;;;;;;;4992967;28;20502;-73
2022/09/26 14:34:52;;;;;;;9.32;4.40;;;;;;;;;;4992853;28;20066;-72
2022/09/26 14:37:23;;;;;;;8.88;4.53;;;;;;;;;;4960688;28;20387;-73
2022/09/26 14:39:59;;;;;;;8.25;4.40;;;;;;;;;;4934699;29;20052;-73
2022/09/26 14:42:47;;;;;;;9.07;4.28;;;;;;;;;;4935057;29;20055;-71
2022/09/26 14:45:30;;;;;;;10.10;5.28;;;;;;;;;;4934951;29;20060;-72
2022/09/26 14:48:13;;;;;;;6.72;3.78;;;;;;;;;;4934630;29;20416;-73
2022/09/26 14:51:05;;;;;;;6.68;3.63;;;;;;;;;;4937530;28;20054;-72
2022/09/26 14:53:47;;;;;;;8.63;4.00;;;;;;;;;;4953828;28;20122;-71
2022/09/26 14:56:28;;;;;;;7.65;3.95;;;;;;;;;;4954052;28;20051;-70
2022/09/26 14:59:19;;;;;;;7.90;3.90;;;;;;;;;;4906389;28;20058;-69
2022/09/26 15:01:50;;;;;;;6.38;3.40;;;;;;;;;;4953941;28;20568;-70
2022/09/26 15:04:24;;;;;;;7.80;3.60;;;;;;;;;;4937723;28;20055;-69
2022/09/26 15:07:02;;;;;;;7.22;3.55;;;;;;;;;;4934411;29;20653;-72
2022/09/26 15:10:06;;;;;;;6.45;3.35;;;;;;;;;;4971445;28;20065;-71
2022/09/26 15:13:07;;;;;;;7.10;3.60;;;;;;;;;;4953752;29;20059;-70
2022/09/26 15:15:55;;;;;;;8.13;3.67;;;;;;;;;;4953601;29;20063;-73
2022/09/26 15:18:38;;;;;;;8.60;4.03;;;;;;;;;;5003678;28;20065;-70
2022/09/26 15:21:11;;;;;;;7.32;3.60;;;;;;;;;;5011859;28;21126;-70
2022/09/26 15:23:48;;;;;;;7.22;3.72;;;;;;;;;;4979539;28;20054;-70
2022/09/26 15:26:36;;;;;;;8.35;4.20;;;;;;;;;;5011811;28;20045;-69
2022/09/26 15:29:10;;;;;;;8.52;4.10;;;;;;;;;;4995922;28;20058;-69
2022/09/26 15:31:44;;;;;;;7.95;3.88;;;;;;;;;;4992097;28;20054;-69
2022/09/26 15:34:41;;;;;;;8.88;3.85;;;;;;;;;;4991156;28;20433;-69
2022/09/26 15:37:24;;;;;;;7.90;4.10;;;;;;;;;;4991969;28;20069;-68
2022/09/26 15:39:54;;;;;;;6.93;3.47;;;;;;;;;;4992001;28;20384;-69
2022/09/26 15:45:28;;;;;;;7.63;3.60;;;;;;;;;;4978873;28;20069;-68
2022/09/26 15:48:26;;;;;;;9.48;3.58;;;;;;;;;;5012996;28;20056;-69
2022/09/26 15:51:10;;;;;;;6.68;3.70;;;;;;;;;;5058105;28;20059;-69
2022/09/26 15:53:52;;;;;;;7.53;3.72;;;;;;;;;;5093654;28;20048;-69
2022/09/26 15:56:25;;;;;;;8.27;3.95;;;;;;;;;;5042602;28;20063;-69
2022/09/26 15:59:16;;;;;;;8.50;3.65;;;;;;;;;;5093356;28;20048;-68
2022/09/26 16:01:51;;;;;;;7.50;4.07;;;;;;;;;;5093595;28;20052;-68
2022/09/26 16:04:23;;;;;;;7.05;4.10;;;;;;;;;;5074780;28;20416;-69
2022/09/26 16:07:05;;;;;;;9.90;4.07;;;;;;;;;;5093568;28;20395;-69
2022/09/26 16:09:41;;;;;;;6.60;3.63;;;;;;;;;;5093256;28;20048;-70
2022/09/26 16:12:14;;;;;;;8.05;4.07;;;;;;;;;;5057109;28;20048;-71
2022/09/26 16:14:50;;;;;;;8.63;4.18;;;;;;;;;;5074381;28;20048;-70
2022/09/26 16:17:21;;;;;;;6.63;3.88;;;;;;;;;;5092088;28;20079;-69
2022/09/26 16:20:01;;;;;;;5.97;3.53;;;;;;;;;;5090627;28;20066;-69
2022/09/26 16:22:39;;;;;;;7.70;4.35;;;;;;;;;;5057041;28;20590;-69
2022/09/26 16:25:18;;;;;;;6.32;3.45;;;;;;;;;;5090699;28;20475;-70
2022/09/26 16:27:51;;;;;;;8.50;3.67;;;;;;;;;;5090552;28;20504;-70
2022/09/26 16:30:27;;;;;;;7.30;3.58;;;;;;;;;;5090589;28;20052;-70
2022/09/26 16:33:06;;;;;;;7.28;3.53;;;;;;;;;;5090346;28;20040;-69
2022/09/26 16:35:43;;;;;;;7.30;4.00;;;;;;;;;;5090325;28;20499;-69
2022/09/26 16:38:28;;;;;;;6.15;3.20;;;;;;;;;;5040203;28;20052;-69